Sacramento, California
Current Conditions -  °F | °C
As of 7:53 PM on Wednesday 22 Oct 2014 (Local Time) from KSAC Reporting Station
Clear Clear  
Wind Chill: 20°   Ceiling: Unl
Heat Index: 20°   Visibility: 10mi
Dew Point:   Wind: 5mph
Humidity: 49%   Direction: 190°S
Pressure: 30.02"   Gusts: NA
Location:  38.58°N, 121.49°W
Report Text: KSAC 230253Z AUTO 19004KT 10SM CLR 20/09 A3002 RMK AO2 SLP165 T02000089 53009 TSNO
Loading
Personal Weather Stations






























Interactive Weather Map New forecast layout! Learn more

10-Day Weather Forecast

Advertisements
Track Severe Weather on mobile